sensor_id;sensor_type;location;lat;lon;timestamp;P1;durP1;ratioP1;P2;durP2;ratioP2
58083;SDS011;43882;51.550;11.858;2023-06-22T00:00:54;21.73;;;11.77;;
58083;SDS011;43882;51.550;11.858;2023-06-22T00:04:18;19.92;;;10.88;;
58083;SDS011;43882;51.550;11.858;2023-06-22T00:07:43;21.55;;;12.35;;
58083;SDS011;43882;51.550;11.858;2023-06-22T00:11:07;22.60;;;11.45;;
58083;SDS011;43882;51.550;11.858;2023-06-22T00:14:32;20.92;;;12.05;;
58083;SDS011;43882;51.550;11.858;2023-06-22T00:17:57;21.83;;;11.75;;
58083;SDS011;43882;51.550;11.858;2023-06-22T00:21:25;22.35;;;12.00;;
58083;SDS011;43882;51.550;11.858;2023-06-22T00:24:53;21.90;;;12.30;;
58083;SDS011;43882;51.550;11.858;2023-06-22T00:28:17;23.60;;;12.80;;
58083;SDS011;43882;51.550;11.858;2023-06-22T00:31:43;24.90;;;13.93;;
58083;SDS011;43882;51.550;11.858;2023-06-22T00:35:08;23.73;;;13.35;;
58083;SDS011;43882;51.550;11.858;2023-06-22T00:38:33;24.42;;;13.75;;
58083;SDS011;43882;51.550;11.858;2023-06-22T00:41:59;23.45;;;13.32;;
58083;SDS011;43882;51.550;11.858;2023-06-22T00:45:23;23.33;;;13.68;;
58083;SDS011;43882;51.550;11.858;2023-06-22T00:48:48;23.38;;;12.95;;
58083;SDS011;43882;51.550;11.858;2023-06-22T00:52:13;24.73;;;13.18;;
58083;SDS011;43882;51.550;11.858;2023-06-22T00:55:41;24.75;;;13.30;;
58083;SDS011;43882;51.550;11.858;2023-06-22T00:59:05;22.40;;;12.60;;
58083;SDS011;43882;51.550;11.858;2023-06-22T01:02:34;22.50;;;11.93;;
58083;SDS011;43882;51.550;11.858;2023-06-22T01:06:05;24.45;;;13.27;;
58083;SDS011;43882;51.550;11.858;2023-06-22T01:09:44;23.00;;;12.48;;
58083;SDS011;43882;51.550;11.858;2023-06-22T01:17:08;23.58;;;13.45;;
58083;SDS011;43882;51.550;11.858;2023-06-22T01:20:33;23.70;;;13.80;;
58083;SDS011;43882;51.550;11.858;2023-06-22T01:24:07;23.70;;;13.32;;
58083;SDS011;43882;51.550;11.858;2023-06-22T01:31:26;23.95;;;13.15;;
58083;SDS011;43882;51.550;11.858;2023-06-22T01:34:56;24.40;;;14.67;;
58083;SDS011;43882;51.550;11.858;2023-06-22T01:38:22;23.65;;;13.27;;
58083;SDS011;43882;51.550;11.858;2023-06-22T01:41:47;23.85;;;13.65;;
58083;SDS011;43882;51.550;11.858;2023-06-22T01:45:12;24.17;;;14.02;;
58083;SDS011;43882;51.550;11.858;2023-06-22T01:48:36;26.30;;;14.90;;
58083;SDS011;43882;51.550;11.858;2023-06-22T01:52:02;23.67;;;14.30;;
58083;SDS011;43882;51.550;11.858;2023-06-22T01:55:26;23.80;;;13.82;;
58083;SDS011;43882;51.550;11.858;2023-06-22T01:58:58;27.70;;;14.55;;
58083;SDS011;43882;51.550;11.858;2023-06-22T02:02:37;25.65;;;15.15;;
58083;SDS011;43882;51.550;11.858;2023-06-22T02:06:23;26.92;;;15.75;;
58083;SDS011;43882;51.550;11.858;2023-06-22T02:09:49;26.17;;;15.43;;
58083;SDS011;43882;51.550;11.858;2023-06-22T02:13:16;26.05;;;15.32;;
58083;SDS011;43882;51.550;11.858;2023-06-22T02:16:41;27.33;;;15.70;;
58083;SDS011;43882;51.550;11.858;2023-06-22T02:20:11;26.52;;;15.23;;
58083;SDS011;43882;51.550;11.858;2023-06-22T02:23:36;26.88;;;15.05;;
58083;SDS011;43882;51.550;11.858;2023-06-22T02:27:01;26.10;;;13.73;;
58083;SDS011;43882;51.550;11.858;2023-06-22T02:30:26;25.45;;;14.57;;
58083;SDS011;43882;51.550;11.858;2023-06-22T02:33:56;26.10;;;15.35;;
58083;SDS011;43882;51.550;11.858;2023-06-22T02:37:21;25.60;;;15.00;;
58083;SDS011;43882;51.550;11.858;2023-06-22T02:40:46;26.58;;;15.93;;
58083;SDS011;43882;51.550;11.858;2023-06-22T02:44:11;27.77;;;15.80;;
58083;SDS011;43882;51.550;11.858;2023-06-22T02:47:35;28.00;;;16.08;;
58083;SDS011;43882;51.550;11.858;2023-06-22T02:51:00;26.88;;;15.23;;
58083;SDS011;43882;51.550;11.858;2023-06-22T02:54:24;27.65;;;15.80;;
58083;SDS011;43882;51.550;11.858;2023-06-22T02:57:49;28.00;;;16.15;;
58083;SDS011;43882;51.550;11.858;2023-06-22T03:01:13;27.98;;;15.48;;
58083;SDS011;43882;51.550;11.858;2023-06-22T03:04:38;27.50;;;15.88;;
58083;SDS011;43882;51.550;11.858;2023-06-22T03:08:05;26.80;;;15.13;;
58083;SDS011;43882;51.550;11.858;2023-06-22T03:11:33;25.45;;;14.98;;
58083;SDS011;43882;51.550;11.858;2023-06-22T03:14:57;27.50;;;16.45;;
58083;SDS011;43882;51.550;11.858;2023-06-22T03:18:22;28.95;;;17.13;;
58083;SDS011;43882;51.550;11.858;2023-06-22T03:21:47;30.55;;;16.80;;
58083;SDS011;43882;51.550;11.858;2023-06-22T03:25:13;29.52;;;16.00;;
58083;SDS011;43882;51.550;11.858;2023-06-22T03:28:38;27.65;;;16.05;;
58083;SDS011;43882;51.550;11.858;2023-06-22T03:32:03;26.55;;;15.35;;
58083;SDS011;43882;51.550;11.858;2023-06-22T03:35:27;28.70;;;16.42;;
58083;SDS011;43882;51.550;11.858;2023-06-22T03:38:52;24.83;;;14.45;;
58083;SDS011;43882;51.550;11.858;2023-06-22T03:42:17;26.98;;;15.07;;
58083;SDS011;43882;51.550;11.858;2023-06-22T03:45:41;28.65;;;15.88;;
58083;SDS011;43882;51.550;11.858;2023-06-22T03:49:06;25.33;;;13.27;;
58083;SDS011;43882;51.550;11.858;2023-06-22T03:52:31;24.88;;;14.38;;
58083;SDS011;43882;51.550;11.858;2023-06-22T03:55:56;27.02;;;15.48;;
58083;SDS011;43882;51.550;11.858;2023-06-22T03:59:21;29.08;;;15.68;;
58083;SDS011;43882;51.550;11.858;2023-06-22T04:02:46;26.70;;;15.15;;
58083;SDS011;43882;51.550;11.858;2023-06-22T04:06:13;29.27;;;16.27;;
58083;SDS011;43882;51.550;11.858;2023-06-22T04:09:38;29.23;;;16.38;;
58083;SDS011;43882;51.550;11.858;2023-06-22T04:13:02;27.10;;;16.38;;
58083;SDS011;43882;51.550;11.858;2023-06-22T04:16:27;26.23;;;15.52;;
58083;SDS011;43882;51.550;11.858;2023-06-22T04:19:51;27.55;;;15.40;;
58083;SDS011;43882;51.550;11.858;2023-06-22T04:23:15;29.30;;;16.58;;
58083;SDS011;43882;51.550;11.858;2023-06-22T04:26:40;26.42;;;15.18;;
58083;SDS011;43882;51.550;11.858;2023-06-22T04:30:06;26.52;;;14.40;;
58083;SDS011;43882;51.550;11.858;2023-06-22T04:33:31;25.35;;;13.75;;
58083;SDS011;43882;51.550;11.858;2023-06-22T04:36:56;23.48;;;13.27;;
58083;SDS011;43882;51.550;11.858;2023-06-22T04:40:21;28.45;;;12.77;;
58083;SDS011;43882;51.550;11.858;2023-06-22T04:43:49;25.58;;;15.02;;
58083;SDS011;43882;51.550;11.858;2023-06-22T04:47:14;39.90;;;20.67;;
58083;SDS011;43882;51.550;11.858;2023-06-22T04:50:41;24.20;;;13.32;;
58083;SDS011;43882;51.550;11.858;2023-06-22T04:54:06;23.23;;;12.98;;
58083;SDS011;43882;51.550;11.858;2023-06-22T04:57:31;24.13;;;12.98;;
58083;SDS011;43882;51.550;11.858;2023-06-22T05:00:57;24.90;;;13.98;;
58083;SDS011;43882;51.550;11.858;2023-06-22T05:04:23;24.70;;;13.60;;
58083;SDS011;43882;51.550;11.858;2023-06-22T05:07:49;26.13;;;14.60;;
58083;SDS011;43882;51.550;11.858;2023-06-22T05:11:14;28.02;;;15.60;;
58083;SDS011;43882;51.550;11.858;2023-06-22T05:14:38;24.48;;;14.57;;
58083;SDS011;43882;51.550;11.858;2023-06-22T05:18:05;24.50;;;14.25;;
58083;SDS011;43882;51.550;11.858;2023-06-22T05:21:30;24.45;;;13.80;;
58083;SDS011;43882;51.550;11.858;2023-06-22T05:24:55;24.08;;;13.70;;
58083;SDS011;43882;51.550;11.858;2023-06-22T05:28:22;28.50;;;16.60;;
58083;SDS011;43882;51.550;11.858;2023-06-22T05:31:48;25.38;;;14.20;;
58083;SDS011;43882;51.550;11.858;2023-06-22T05:35:12;26.90;;;14.30;;
58083;SDS011;43882;51.550;11.858;2023-06-22T05:38:37;25.45;;;14.55;;
58083;SDS011;43882;51.550;11.858;2023-06-22T05:42:05;24.05;;;14.23;;
58083;SDS011;43882;51.550;11.858;2023-06-22T05:45:30;25.60;;;15.30;;
58083;SDS011;43882;51.550;11.858;2023-06-22T05:48:54;27.42;;;15.45;;
58083;SDS011;43882;51.550;11.858;2023-06-22T05:52:19;27.65;;;15.63;;
58083;SDS011;43882;51.550;11.858;2023-06-22T05:55:43;28.10;;;15.80;;
58083;SDS011;43882;51.550;11.858;2023-06-22T05:59:08;28.70;;;15.88;;
58083;SDS011;43882;51.550;11.858;2023-06-22T06:02:35;24.67;;;14.60;;
58083;SDS011;43882;51.550;11.858;2023-06-22T06:06:05;27.17;;;14.93;;
58083;SDS011;43882;51.550;11.858;2023-06-22T06:09:30;26.10;;;14.98;;
58083;SDS011;43882;51.550;11.858;2023-06-22T06:12:55;27.00;;;15.23;;
58083;SDS011;43882;51.550;11.858;2023-06-22T06:16:20;25.70;;;14.20;;
58083;SDS011;43882;51.550;11.858;2023-06-22T06:19:44;25.25;;;14.93;;
58083;SDS011;43882;51.550;11.858;2023-06-22T06:23:09;24.48;;;13.95;;
58083;SDS011;43882;51.550;11.858;2023-06-22T06:26:34;26.23;;;15.27;;
58083;SDS011;43882;51.550;11.858;2023-06-22T06:29:58;23.65;;;14.40;;
58083;SDS011;43882;51.550;11.858;2023-06-22T06:33:23;25.15;;;14.75;;
58083;SDS011;43882;51.550;11.858;2023-06-22T06:36:47;24.73;;;14.20;;
58083;SDS011;43882;51.550;11.858;2023-06-22T06:40:14;24.35;;;14.75;;
58083;SDS011;43882;51.550;11.858;2023-06-22T06:43:39;25.00;;;14.18;;
58083;SDS011;43882;51.550;11.858;2023-06-22T06:47:04;24.98;;;14.10;;
58083;SDS011;43882;51.550;11.858;2023-06-22T06:50:29;23.73;;;14.07;;
58083;SDS011;43882;51.550;11.858;2023-06-22T06:53:53;23.27;;;13.75;;
58083;SDS011;43882;51.550;11.858;2023-06-22T06:57:18;23.80;;;14.45;;
58083;SDS011;43882;51.550;11.858;2023-06-22T07:00:43;23.35;;;13.63;;
58083;SDS011;43882;51.550;11.858;2023-06-22T07:04:09;24.02;;;13.52;;
58083;SDS011;43882;51.550;11.858;2023-06-22T07:07:34;23.63;;;14.45;;
58083;SDS011;43882;51.550;11.858;2023-06-22T07:11:00;22.52;;;13.98;;
58083;SDS011;43882;51.550;11.858;2023-06-22T07:14:24;24.88;;;14.88;;
58083;SDS011;43882;51.550;11.858;2023-06-22T07:17:49;23.00;;;14.43;;
58083;SDS011;43882;51.550;11.858;2023-06-22T07:21:13;24.42;;;14.07;;
58083;SDS011;43882;51.550;11.858;2023-06-22T07:24:38;21.73;;;13.00;;
58083;SDS011;43882;51.550;11.858;2023-06-22T07:28:03;22.73;;;13.63;;
58083;SDS011;43882;51.550;11.858;2023-06-22T07:31:29;23.25;;;13.85;;
58083;SDS011;43882;51.550;11.858;2023-06-22T07:34:54;24.20;;;13.80;;
58083;SDS011;43882;51.550;11.858;2023-06-22T07:38:18;23.50;;;13.10;;
58083;SDS011;43882;51.550;11.858;2023-06-22T07:41:43;21.75;;;12.40;;
58083;SDS011;43882;51.550;11.858;2023-06-22T07:45:07;22.52;;;13.63;;
58083;SDS011;43882;51.550;11.858;2023-06-22T07:48:32;21.45;;;12.32;;
58083;SDS011;43882;51.550;11.858;2023-06-22T07:51:57;22.35;;;12.80;;
58083;SDS011;43882;51.550;11.858;2023-06-22T07:55:21;22.38;;;12.45;;
58083;SDS011;43882;51.550;11.858;2023-06-22T07:58:46;21.15;;;12.38;;
58083;SDS011;43882;51.550;11.858;2023-06-22T08:02:11;21.92;;;12.10;;
58083;SDS011;43882;51.550;11.858;2023-06-22T08:05:36;20.70;;;12.15;;
58083;SDS011;43882;51.550;11.858;2023-06-22T08:09:01;21.42;;;12.15;;
58083;SDS011;43882;51.550;11.858;2023-06-22T08:12:25;21.02;;;12.45;;
58083;SDS011;43882;51.550;11.858;2023-06-22T08:15:50;23.80;;;12.73;;
58083;SDS011;43882;51.550;11.858;2023-06-22T08:19:14;21.48;;;12.63;;
58083;SDS011;43882;51.550;11.858;2023-06-22T08:22:40;21.48;;;12.27;;
58083;SDS011;43882;51.550;11.858;2023-06-22T08:26:04;20.92;;;12.32;;
58083;SDS011;43882;51.550;11.858;2023-06-22T08:29:30;21.77;;;11.98;;
58083;SDS011;43882;51.550;11.858;2023-06-22T08:32:54;20.75;;;12.52;;
58083;SDS011;43882;51.550;11.858;2023-06-22T08:36:19;22.05;;;12.60;;
58083;SDS011;43882;51.550;11.858;2023-06-22T08:39:44;22.08;;;13.10;;
58083;SDS011;43882;51.550;11.858;2023-06-22T08:43:08;19.92;;;11.63;;
58083;SDS011;43882;51.550;11.858;2023-06-22T08:46:33;20.27;;;11.60;;
58083;SDS011;43882;51.550;11.858;2023-06-22T08:49:57;21.58;;;11.93;;
58083;SDS011;43882;51.550;11.858;2023-06-22T08:53:22;20.48;;;12.55;;
58083;SDS011;43882;51.550;11.858;2023-06-22T08:56:47;20.92;;;12.18;;
58083;SDS011;43882;51.550;11.858;2023-06-22T09:00:11;20.95;;;11.75;;
58083;SDS011;43882;51.550;11.858;2023-06-22T09:03:36;20.10;;;11.55;;
58083;SDS011;43882;51.550;11.858;2023-06-22T09:07:01;19.40;;;11.35;;
58083;SDS011;43882;51.550;11.858;2023-06-22T09:10:25;20.08;;;10.93;;
58083;SDS011;43882;51.550;11.858;2023-06-22T09:13:50;20.10;;;11.52;;
58083;SDS011;43882;51.550;11.858;2023-06-22T09:17:15;21.42;;;11.18;;
58083;SDS011;43882;51.550;11.858;2023-06-22T09:20:39;19.90;;;10.70;;
58083;SDS011;43882;51.550;11.858;2023-06-22T09:24:04;20.52;;;11.55;;
58083;SDS011;43882;51.550;11.858;2023-06-22T09:27:29;19.88;;;11.50;;
58083;SDS011;43882;51.550;11.858;2023-06-22T09:30:54;18.67;;;10.68;;
58083;SDS011;43882;51.550;11.858;2023-06-22T09:34:19;19.98;;;11.25;;
58083;SDS011;43882;51.550;11.858;2023-06-22T09:37:43;21.80;;;11.70;;
58083;SDS011;43882;51.550;11.858;2023-06-22T09:41:08;18.73;;;10.65;;
58083;SDS011;43882;51.550;11.858;2023-06-22T09:44:32;20.27;;;10.90;;
58083;SDS011;43882;51.550;11.858;2023-06-22T09:47:57;21.25;;;11.23;;
58083;SDS011;43882;51.550;11.858;2023-06-22T09:51:22;20.75;;;10.63;;
58083;SDS011;43882;51.550;11.858;2023-06-22T09:54:47;18.73;;;9.85;;
58083;SDS011;43882;51.550;11.858;2023-06-22T09:58:11;19.17;;;10.63;;
58083;SDS011;43882;51.550;11.858;2023-06-22T10:01:36;19.05;;;10.57;;
58083;SDS011;43882;51.550;11.858;2023-06-22T10:05:01;18.63;;;9.80;;
58083;SDS011;43882;51.550;11.858;2023-06-22T10:08:25;18.00;;;9.25;;
58083;SDS011;43882;51.550;11.858;2023-06-22T10:11:50;18.15;;;9.43;;
58083;SDS011;43882;51.550;11.858;2023-06-22T10:15:22;18.13;;;9.32;;
58083;SDS011;43882;51.550;11.858;2023-06-22T10:18:46;19.23;;;9.75;;
58083;SDS011;43882;51.550;11.858;2023-06-22T10:22:11;17.30;;;8.43;;
58083;SDS011;43882;51.550;11.858;2023-06-22T10:25:35;18.85;;;9.13;;
58083;SDS011;43882;51.550;11.858;2023-06-22T10:29:00;18.30;;;8.82;;
58083;SDS011;43882;51.550;11.858;2023-06-22T10:32:25;17.20;;;8.30;;
58083;SDS011;43882;51.550;11.858;2023-06-22T10:35:50;17.70;;;8.55;;
58083;SDS011;43882;51.550;11.858;2023-06-22T10:39:14;16.48;;;7.82;;
58083;SDS011;43882;51.550;11.858;2023-06-22T10:42:40;17.02;;;8.18;;
58083;SDS011;43882;51.550;11.858;2023-06-22T10:46:04;18.38;;;7.90;;
58083;SDS011;43882;51.550;11.858;2023-06-22T10:49:29;17.67;;;8.85;;
58083;SDS011;43882;51.550;11.858;2023-06-22T10:52:54;16.75;;;8.00;;
58083;SDS011;43882;51.550;11.858;2023-06-22T10:56:18;17.25;;;8.25;;
58083;SDS011;43882;51.550;11.858;2023-06-22T10:59:43;18.30;;;8.82;;
58083;SDS011;43882;51.550;11.858;2023-06-22T11:03:08;17.60;;;8.07;;
58083;SDS011;43882;51.550;11.858;2023-06-22T11:06:33;16.55;;;8.10;;
58083;SDS011;43882;51.550;11.858;2023-06-22T11:09:58;16.75;;;7.53;;
58083;SDS011;43882;51.550;11.858;2023-06-22T11:13:22;16.10;;;7.78;;
58083;SDS011;43882;51.550;11.858;2023-06-22T11:16:47;17.98;;;7.22;;
58083;SDS011;43882;51.550;11.858;2023-06-22T11:20:12;15.88;;;7.53;;
58083;SDS011;43882;51.550;11.858;2023-06-22T11:23:36;17.27;;;7.57;;
58083;SDS011;43882;51.550;11.858;2023-06-22T11:27:01;16.40;;;7.05;;
58083;SDS011;43882;51.550;11.858;2023-06-22T11:30:29;16.55;;;7.22;;
58083;SDS011;43882;51.550;11.858;2023-06-22T11:33:53;16.60;;;7.55;;
58083;SDS011;43882;51.550;11.858;2023-06-22T11:37:18;16.85;;;7.00;;
58083;SDS011;43882;51.550;11.858;2023-06-22T11:40:43;15.98;;;7.00;;
58083;SDS011;43882;51.550;11.858;2023-06-22T11:44:07;15.77;;;7.13;;
58083;SDS011;43882;51.550;11.858;2023-06-22T11:47:32;16.05;;;6.50;;
58083;SDS011;43882;51.550;11.858;2023-06-22T11:50:57;15.95;;;6.88;;
58083;SDS011;43882;51.550;11.858;2023-06-22T11:54:22;16.30;;;7.00;;
58083;SDS011;43882;51.550;11.858;2023-06-22T11:57:54;15.60;;;6.35;;
58083;SDS011;43882;51.550;11.858;2023-06-22T12:01:19;15.70;;;6.40;;
58083;SDS011;43882;51.550;11.858;2023-06-22T12:04:44;16.88;;;6.65;;
58083;SDS011;43882;51.550;11.858;2023-06-22T12:08:08;19.13;;;9.70;;
58083;SDS011;43882;51.550;11.858;2023-06-22T12:11:33;17.45;;;7.80;;
58083;SDS011;43882;51.550;11.858;2023-06-22T12:14:58;16.15;;;7.05;;
58083;SDS011;43882;51.550;11.858;2023-06-22T12:18:22;17.83;;;7.22;;
58083;SDS011;43882;51.550;11.858;2023-06-22T12:21:47;17.23;;;7.57;;
58083;SDS011;43882;51.550;11.858;2023-06-22T12:25:12;17.00;;;7.20;;
58083;SDS011;43882;51.550;11.858;2023-06-22T12:28:37;16.02;;;7.50;;
58083;SDS011;43882;51.550;11.858;2023-06-22T12:32:01;16.77;;;7.38;;
58083;SDS011;43882;51.550;11.858;2023-06-22T12:35:27;16.60;;;7.50;;
58083;SDS011;43882;51.550;11.858;2023-06-22T12:38:53;17.05;;;6.90;;
58083;SDS011;43882;51.550;11.858;2023-06-22T12:42:19;16.25;;;6.78;;
58083;SDS011;43882;51.550;11.858;2023-06-22T12:45:44;16.15;;;7.47;;
58083;SDS011;43882;51.550;11.858;2023-06-22T12:49:08;16.98;;;7.38;;
58083;SDS011;43882;51.550;11.858;2023-06-22T12:52:36;16.70;;;7.75;;
58083;SDS011;43882;51.550;11.858;2023-06-22T12:56:01;16.10;;;7.10;;
58083;SDS011;43882;51.550;11.858;2023-06-22T12:59:26;16.33;;;7.40;;
58083;SDS011;43882;51.550;11.858;2023-06-22T13:02:51;16.08;;;7.15;;
58083;SDS011;43882;51.550;11.858;2023-06-22T13:06:15;16.33;;;6.97;;
58083;SDS011;43882;51.550;11.858;2023-06-22T13:09:40;15.88;;;7.05;;
58083;SDS011;43882;51.550;11.858;2023-06-22T13:13:04;16.45;;;7.60;;
58083;SDS011;43882;51.550;11.858;2023-06-22T13:16:29;16.10;;;7.35;;
58083;SDS011;43882;51.550;11.858;2023-06-22T13:19:54;16.70;;;7.47;;
58083;SDS011;43882;51.550;11.858;2023-06-22T13:23:20;16.80;;;7.45;;
58083;SDS011;43882;51.550;11.858;2023-06-22T13:26:44;16.45;;;7.30;;
58083;SDS011;43882;51.550;11.858;2023-06-22T13:30:09;19.02;;;7.57;;
58083;SDS011;43882;51.550;11.858;2023-06-22T13:33:34;16.50;;;7.80;;
58083;SDS011;43882;51.550;11.858;2023-06-22T13:36:58;18.02;;;7.88;;
58083;SDS011;43882;51.550;11.858;2023-06-22T13:40:23;15.98;;;7.47;;
58083;SDS011;43882;51.550;11.858;2023-06-22T13:43:47;18.55;;;7.57;;
58083;SDS011;43882;51.550;11.858;2023-06-22T13:47:12;18.63;;;7.75;;
58083;SDS011;43882;51.550;11.858;2023-06-22T13:50:37;17.88;;;8.70;;
58083;SDS011;43882;51.550;11.858;2023-06-22T13:54:01;17.05;;;7.93;;
58083;SDS011;43882;51.550;11.858;2023-06-22T13:57:26;17.75;;;8.30;;
58083;SDS011;43882;51.550;11.858;2023-06-22T14:00:50;17.02;;;8.40;;
58083;SDS011;43882;51.550;11.858;2023-06-22T14:04:15;17.73;;;7.80;;
58083;SDS011;43882;51.550;11.858;2023-06-22T14:07:40;17.00;;;7.13;;
58083;SDS011;43882;51.550;11.858;2023-06-22T14:11:04;16.88;;;7.55;;
58083;SDS011;43882;51.550;11.858;2023-06-22T14:14:30;16.13;;;7.70;;
58083;SDS011;43882;51.550;11.858;2023-06-22T14:17:55;17.15;;;7.88;;
58083;SDS011;43882;51.550;11.858;2023-06-22T14:21:20;17.45;;;7.65;;
58083;SDS011;43882;51.550;11.858;2023-06-22T14:24:45;17.20;;;7.85;;
58083;SDS011;43882;51.550;11.858;2023-06-22T14:28:10;18.60;;;7.70;;
58083;SDS011;43882;51.550;11.858;2023-06-22T14:31:34;16.50;;;7.45;;
58083;SDS011;43882;51.550;11.858;2023-06-22T14:34:59;18.50;;;8.68;;
58083;SDS011;43882;51.550;11.858;2023-06-22T14:38:23;18.55;;;9.35;;
58083;SDS011;43882;51.550;11.858;2023-06-22T14:41:48;19.20;;;8.57;;
58083;SDS011;43882;51.550;11.858;2023-06-22T14:45:13;17.73;;;8.30;;
58083;SDS011;43882;51.550;11.858;2023-06-22T14:48:39;18.63;;;8.50;;
58083;SDS011;43882;51.550;11.858;2023-06-22T14:52:04;17.58;;;8.10;;
58083;SDS011;43882;51.550;11.858;2023-06-22T14:55:29;16.83;;;8.07;;
58083;SDS011;43882;51.550;11.858;2023-06-22T14:58:54;17.17;;;8.10;;
58083;SDS011;43882;51.550;11.858;2023-06-22T15:02:20;18.40;;;8.23;;
58083;SDS011;43882;51.550;11.858;2023-06-22T15:05:50;17.92;;;8.35;;
58083;SDS011;43882;51.550;11.858;2023-06-22T15:09:14;19.23;;;8.93;;
58083;SDS011;43882;51.550;11.858;2023-06-22T15:12:39;18.40;;;9.02;;
58083;SDS011;43882;51.550;11.858;2023-06-22T15:16:04;19.17;;;8.63;;
58083;SDS011;43882;51.550;11.858;2023-06-22T15:19:29;17.35;;;8.65;;
58083;SDS011;43882;51.550;11.858;2023-06-22T15:22:54;18.80;;;8.05;;
58083;SDS011;43882;51.550;11.858;2023-06-22T15:26:18;17.80;;;8.00;;
58083;SDS011;43882;51.550;11.858;2023-06-22T15:29:43;18.10;;;8.07;;
58083;SDS011;43882;51.550;11.858;2023-06-22T15:33:08;17.08;;;7.95;;
58083;SDS011;43882;51.550;11.858;2023-06-22T15:36:33;17.33;;;8.20;;
58083;SDS011;43882;51.550;11.858;2023-06-22T15:39:57;18.67;;;9.27;;
58083;SDS011;43882;51.550;11.858;2023-06-22T15:43:22;19.05;;;10.20;;
58083;SDS011;43882;51.550;11.858;2023-06-22T15:46:47;27.30;;;19.63;;
58083;SDS011;43882;51.550;11.858;2023-06-22T15:50:12;20.60;;;11.20;;
58083;SDS011;43882;51.550;11.858;2023-06-22T15:53:36;18.50;;;8.80;;
58083;SDS011;43882;51.550;11.858;2023-06-22T15:57:01;19.30;;;8.60;;
58083;SDS011;43882;51.550;11.858;2023-06-22T16:00:26;18.35;;;8.73;;
58083;SDS011;43882;51.550;11.858;2023-06-22T16:03:50;18.45;;;8.60;;
58083;SDS011;43882;51.550;11.858;2023-06-22T16:07:15;17.45;;;8.70;;
58083;SDS011;43882;51.550;11.858;2023-06-22T16:10:40;17.45;;;8.70;;
58083;SDS011;43882;51.550;11.858;2023-06-22T16:14:04;17.85;;;8.65;;
58083;SDS011;43882;51.550;11.858;2023-06-22T16:17:29;20.23;;;8.95;;
58083;SDS011;43882;51.550;11.858;2023-06-22T16:20:54;18.15;;;8.20;;
58083;SDS011;43882;51.550;11.858;2023-06-22T16:24:20;19.25;;;10.30;;
58083;SDS011;43882;51.550;11.858;2023-06-22T16:27:45;21.67;;;11.57;;
58083;SDS011;43882;51.550;11.858;2023-06-22T16:31:09;19.38;;;9.30;;
58083;SDS011;43882;51.550;11.858;2023-06-22T16:34:34;18.35;;;9.10;;
58083;SDS011;43882;51.550;11.858;2023-06-22T16:38:01;17.75;;;9.07;;
58083;SDS011;43882;51.550;11.858;2023-06-22T16:41:26;18.15;;;9.23;;
58083;SDS011;43882;51.550;11.858;2023-06-22T16:44:50;34.05;;;25.30;;
58083;SDS011;43882;51.550;11.858;2023-06-22T16:48:15;20.10;;;10.07;;
58083;SDS011;43882;51.550;11.858;2023-06-22T16:51:40;17.75;;;9.10;;
58083;SDS011;43882;51.550;11.858;2023-06-22T16:55:05;19.52;;;8.98;;
58083;SDS011;43882;51.550;11.858;2023-06-22T16:58:30;20.83;;;10.50;;
58083;SDS011;43882;51.550;11.858;2023-06-22T17:01:55;20.92;;;12.43;;
58083;SDS011;43882;51.550;11.858;2023-06-22T17:05:21;20.40;;;11.18;;
58083;SDS011;43882;51.550;11.858;2023-06-22T17:08:47;20.35;;;11.45;;
58083;SDS011;43882;51.550;11.858;2023-06-22T17:12:13;19.33;;;9.88;;
58083;SDS011;43882;51.550;11.858;2023-06-22T17:15:38;18.27;;;9.30;;
58083;SDS011;43882;51.550;11.858;2023-06-22T17:19:03;24.58;;;9.70;;
58083;SDS011;43882;51.550;11.858;2023-06-22T17:22:28;17.70;;;8.82;;
58083;SDS011;43882;51.550;11.858;2023-06-22T17:25:53;20.50;;;9.82;;
58083;SDS011;43882;51.550;11.858;2023-06-22T17:29:20;20.60;;;9.65;;
58083;SDS011;43882;51.550;11.858;2023-06-22T17:32:49;18.40;;;9.23;;
58083;SDS011;43882;51.550;11.858;2023-06-22T17:36:14;22.48;;;12.10;;
58083;SDS011;43882;51.550;11.858;2023-06-22T17:39:39;24.63;;;16.05;;
58083;SDS011;43882;51.550;11.858;2023-06-22T17:43:04;21.17;;;12.85;;
58083;SDS011;43882;51.550;11.858;2023-06-22T17:46:36;21.00;;;12.85;;
58083;SDS011;43882;51.550;11.858;2023-06-22T17:50:04;18.50;;;9.30;;
58083;SDS011;43882;51.550;11.858;2023-06-22T17:53:31;18.52;;;9.48;;
58083;SDS011;43882;51.550;11.858;2023-06-22T17:56:56;20.77;;;9.35;;
58083;SDS011;43882;51.550;11.858;2023-06-22T18:00:21;19.70;;;9.85;;
58083;SDS011;43882;51.550;11.858;2023-06-22T18:03:56;18.35;;;9.52;;
58083;SDS011;43882;51.550;11.858;2023-06-22T18:07:27;18.85;;;9.55;;
58083;SDS011;43882;51.550;11.858;2023-06-22T18:10:53;18.63;;;9.43;;
58083;SDS011;43882;51.550;11.858;2023-06-22T18:14:21;18.92;;;9.55;;
58083;SDS011;43882;51.550;11.858;2023-06-22T18:17:47;18.95;;;9.57;;
58083;SDS011;43882;51.550;11.858;2023-06-22T18:21:12;18.85;;;9.57;;
58083;SDS011;43882;51.550;11.858;2023-06-22T18:24:37;19.15;;;9.07;;
58083;SDS011;43882;51.550;11.858;2023-06-22T18:28:03;19.40;;;9.45;;
58083;SDS011;43882;51.550;11.858;2023-06-22T18:31:29;18.67;;;8.98;;
58083;SDS011;43882;51.550;11.858;2023-06-22T18:34:54;18.48;;;9.23;;
58083;SDS011;43882;51.550;11.858;2023-06-22T18:38:18;20.20;;;7.80;;
58083;SDS011;43882;51.550;11.858;2023-06-22T18:41:53;17.13;;;6.93;;
58083;SDS011;43882;51.550;11.858;2023-06-22T18:45:27;18.60;;;6.50;;
58083;SDS011;43882;51.550;11.858;2023-06-22T18:48:59;18.38;;;5.45;;
58083;SDS011;43882;51.550;11.858;2023-06-22T18:52:31;20.90;;;9.88;;
58083;SDS011;43882;51.550;11.858;2023-06-22T18:56:10;17.33;;;6.03;;
58083;SDS011;43882;51.550;11.858;2023-06-22T18:59:45;18.13;;;6.50;;
58083;SDS011;43882;51.550;11.858;2023-06-22T19:03:21;20.80;;;6.97;;
58083;SDS011;43882;51.550;11.858;2023-06-22T19:13:59;15.77;;;6.10;;
58083;SDS011;43882;51.550;11.858;2023-06-22T19:17:42;17.27;;;6.18;;
58083;SDS011;43882;51.550;11.858;2023-06-22T19:21:08;18.27;;;5.65;;
58083;SDS011;43882;51.550;11.858;2023-06-22T19:24:48;17.05;;;5.95;;
58083;SDS011;43882;51.550;11.858;2023-06-22T19:28:13;16.33;;;5.50;;
58083;SDS011;43882;51.550;11.858;2023-06-22T19:31:42;16.23;;;6.00;;
58083;SDS011;43882;51.550;11.858;2023-06-22T19:35:07;16.52;;;5.30;;
58083;SDS011;43882;51.550;11.858;2023-06-22T19:38:32;17.45;;;5.68;;
58083;SDS011;43882;51.550;11.858;2023-06-22T19:42:01;16.08;;;4.85;;
58083;SDS011;43882;51.550;11.858;2023-06-22T19:45:25;15.40;;;4.90;;
58083;SDS011;43882;51.550;11.858;2023-06-22T19:48:51;17.02;;;5.53;;
58083;SDS011;43882;51.550;11.858;2023-06-22T19:52:32;17.48;;;5.28;;
58083;SDS011;43882;51.550;11.858;2023-06-22T19:55:57;17.02;;;5.40;;
58083;SDS011;43882;51.550;11.858;2023-06-22T19:59:22;16.23;;;5.50;;
58083;SDS011;43882;51.550;11.858;2023-06-22T20:02:49;16.70;;;5.55;;
58083;SDS011;43882;51.550;11.858;2023-06-22T20:06:14;15.50;;;5.30;;